First Ferry Viii — VRS4306 — position and weather

sailwx.info

Track history (hours):
 
Tides and Currents Weather Stations Pressure Air Temp Water Temp Dewpoint Dewpoint Depression Visibility Wind Speed Wind Dir Waves Ship Positions

First Ferry Viii

Last reported at 2016-May-31 04:33 UTC. Time now 2016-May-31 05:59 UTC.
Position N 22°19' E 114°12'.

Length 36 m; draft 1.8 m.

Type: High speed craft. MMSI: 477995030.

Date/timePositionNaut miles runAvg speedWind from/ knotsBaromVisibWave heightAir tempDewpointWater temp
2016-May-31 04:33N 22°19' E 114°12'0 0.0
2016-May-31 03:33N 22°19' E 114°12'1 0.9
2016-May-31 02:33N 22°18' E 114°12'2 2.1
2016-May-31 01:34N 22°17' E 114°09'4 3.0
2016-May-31 00:17N 22°17' E 114°05'4 5.4
2016-May-30 23:33N 22°17' E 114°10'0 0.0
2016-May-30 16:33N 22°17' E 114°09'4 3.3
2016-May-30 15:17N 22°16' E 114°05'4 6.0
2016-May-30 14:34N 22°17' E 114°10'3 2.6
2016-May-30 13:15N 22°17' E 114°06'3 4.9
2016-May-30 12:33N 22°17' E 114°10'3 2.4
2016-May-30 11:13N 22°17' E 114°06'3 1.9
2016-May-30 09:33N 22°17' E 114°10'0 0.0
2016-May-30 07:33N 22°17' E 114°10'0 0.0
2016-May-30 05:33N 22°17' E 114°10'3 2.5
2016-May-30 04:33N 22°20' E 114°09'0 0.0
2016-May-30 03:32N 22°20' E 114°09'0 0.0
2016-May-30 02:33N 22°20' E 114°09'2 2.5
2016-May-30 01:33N 22°17' E 114°10'4 2.9
2016-May-30 00:16N 22°17' E 114°06'4 5.0
2016-May-29 23:34N 22°17' E 114°09'0 0.0
2016-May-29 16:33N 22°17' E 114°09'5 4.0
2016-May-29 15:19N 22°16' E 114°04'5 6.6
2016-May-29 14:34N 22°17' E 114°10'5 3.7
2016-May-29 13:18N 22°16' E 114°05'5 6.1
2016-May-29 12:34N 22°17' E 114°10'4 3.3
2016-May-29 11:17N 22°16' E 114°05'4 5.9
2016-May-29 10:33N 22°17' E 114°10'5 4.3
2016-May-29 09:20N 22°16' E 114°04'5 6.7
2016-May-29 08:33N 22°17' E 114°10'3 2.4
2016-May-29 07:13N 22°17' E 114°06'3 4.9
2016-May-29 06:33N 22°17' E 114°10'0 0.0
2016-May-29 04:34N 22°17' E 114°10'4 2.9
2016-May-29 03:14N 22°17' E 114°05'4 5.7
2016-May-29 02:33N 22°17' E 114°10'5 3.5
2016-May-29 01:17N 22°16' E 114°05'5 6.5
2016-May-29 00:34N 22°19' E 114°09'1 1.5
2016-May-28 23:34N 22°17' E 114°10'0 0.0
2016-May-28 16:33N 22°17' E 114°10'4 3.3
2016-May-28 15:18N 22°16' E 114°05'4 5.6
2016-May-28 14:33N 22°17' E 114°10'4 3.3
2016-May-28 13:16N 22°16' E 114°05'4 5.9
2016-May-28 12:33N 22°17' E 114°10'5 3.8
2016-May-28 11:19N 22°16' E 114°05'5 2.7
2016-May-28 09:33N 22°17' E 114°10'5 3.5
2016-May-28 08:03N 22°15' E 114°04'510.6
2016-May-28 07:33N 22°17' E 114°10'0 0.0
2016-May-28 05:33N 22°17' E 114°10'0 0.0
2016-May-28 03:33N 22°17' E 114°10'3 2.6
2016-May-28 02:33N 22°19' E 114°12'3 2.6
2016-May-28 01:34N 22°17' E 114°10'3 2.5
2016-May-28 00:15N 22°17' E 114°06'3 4.8
2016-May-27 23:34N 22°17' E 114°10'0 0.0
2016-May-27 16:33N 22°17' E 114°10'3 2.5
2016-May-27 15:14N 22°17' E 114°06'3 4.9
2016-May-27 14:33N 22°17' E 114°10'4 2.9
2016-May-27 13:16N 22°17' E 114°06'4 5.1
2016-May-27 12:33N 22°17' E 114°10'2 1.8
2016-May-27 11:12N 22°17' E 114°07'2 1.5
2016-May-27 09:33N 22°17' E 114°10'0 0.0
2016-May-27 07:33N 22°17' E 114°10'3 2.5
2016-May-27 06:33N 22°20' E 114°09'0 0.0
2016-May-27 05:33N 22°20' E 114°09'0 0.0
2016-May-27 04:32N 22°20' E 114°09'0 0.0
2016-May-27 03:33N 22°20' E 114°09'0 0.0
2016-May-27 02:33N 22°20' E 114°09'2 2.3
2016-May-27 01:34N 22°17' E 114°09'5 3.7
2016-May-27 00:17N 22°16' E 114°05'5 6.6
2016-May-26 23:34N 22°17' E 114°09'0 0.0
2016-May-26 16:33N 22°17' E 114°10'4 3.5
2016-May-26 15:17N 22°16' E 114°05'4 6.1
2016-May-26 14:33N 22°17' E 114°10'4 3.1
2016-May-26 13:16N 22°17' E 114°05'4 5.7
2016-May-26 12:33N 22°17' E 114°10'3 2.0
2016-May-26 11:12N 22°17' E 114°07'3 1.7
2016-May-26 09:33N 22°17' E 114°10'0 0.0
2016-May-26 07:33N 22°17' E 114°10'0 0.0
2016-May-26 05:33N 22°17' E 114°10'3 2.6
2016-May-26 04:33N 22°19' E 114°12'0 0.0
2016-May-26 03:33N 22°19' E 114°12'0 0.0
2016-May-26 02:33N 22°19' E 114°12'3 2.7
2016-May-26 01:34N 22°17' E 114°09'3 2.4
2016-May-26 00:13N 22°17' E 114°06'3 4.6
2016-May-25 23:34N 22°17' E 114°09'0 0.1
2016-May-25 16:33N 22°17' E 114°10'4 2.7
2016-May-25 15:15N 22°17' E 114°06'4 5.2
2016-May-25 14:33N 22°17' E 114°10'5 4.4
2016-May-25 13:22N 22°16' E 114°04'5 6.6
2016-May-25 12:33N 22°17' E 114°10'5 3.5
2016-May-25 11:16N 22°16' E 114°05'5 2.6
2016-May-25 09:33N 22°17' E 114°10'0 0.0
2016-May-25 07:33N 22°17' E 114°10'0 0.0
2016-May-25 05:33N 22°17' E 114°10'3 2.6
2016-May-25 04:33N 22°19' E 114°12'0 0.0
2016-May-25 03:33N 22°19' E 114°12'1 1.5
2016-May-25 02:33N 22°18' E 114°11'2 1.6
2016-May-25 01:34N 22°17' E 114°10'3 2.4
2016-May-25 00:13N 22°17' E 114°06'3 4.8
2016-May-24 23:34N 22°17' E 114°09'0 0.0
2016-May-24 16:34N 22°17' E 114°09'4 3.3
2016-May-24 15:17N 22°16' E 114°05'4 5.8
2016-May-24 14:33N 22°17' E 114°10'5 3.6
2016-May-24 13:18N 22°16' E 114°05'5 6.1
2016-May-24 12:33N 22°17' E 114°10'4 3.2
2016-May-24 11:15N 22°16' E 114°05'4 2.5
2016-May-24 09:33N 22°17' E 114°10'0 0.0
2016-May-24 07:33N 22°17' E 114°10'0 0.0
2016-May-24 05:33N 22°17' E 114°10'3 2.6
2016-May-24 04:33N 22°19' E 114°12'0 0.0
2016-May-24 03:33N 22°19' E 114°12'0 0.0
2016-May-24 02:33N 22°19' E 114°12'3 2.6
2016-May-24 01:33N 22°17' E 114°09'4 3.3
2016-May-24 00:17N 22°16' E 114°05'4 5.8
2016-May-23 23:33N 22°17' E 114°09'0 0.0
2016-May-23 16:34N 22°17' E 114°09'4 3.3
2016-May-23 15:17N 22°16' E 114°05'4 5.9
2016-May-23 14:33N 22°17' E 114°10'3 2.2
2016-May-23 13:13N 22°17' E 114°06'3 4.4
2016-May-23 12:33N 22°17' E 114°10'5 3.8
2016-May-23 11:19N 22°16' E 114°05'5 2.7
2016-May-23 09:33N 22°17' E 114°10'0 0.0
2016-May-23 07:33N 22°17' E 114°10'0 0.0
2016-May-23 05:34N 22°17' E 114°10'3 2.7
2016-May-23 04:33N 22°19' E 114°12'0 0.0
2016-May-23 03:33N 22°19' E 114°12'1 1.2
2016-May-23 02:34N 22°18' E 114°12'2 1.8
2016-May-23 01:33N 22°17' E 114°10'5 4.0
2016-May-23 00:19N 22°16' E 114°05'5 6.4
2016-May-22 23:33N 22°17' E 114°09'0 0.0
2016-May-22 16:33N 22°17' E 114°10'3 2.6
2016-May-22 15:14N 22°17' E 114°06'3 5.1
2016-May-22 14:34N 22°17' E 114°10'5 3.8
2016-May-22 13:18N 22°16' E 114°05'5 6.4
2016-May-22 12:33N 22°17' E 114°10'6 4.5
2016-May-22 11:20N 22°15' E 114°04'2 0.4
2016-May-22 07:08N 22°17' E 114°05'4 6.4
2016-May-22 06:34N 22°17' E 114°09'3 2.0
2016-May-22 05:06N 22°17' E 114°06'3 6.0
2016-May-22 04:33N 22°17' E 114°10'5 3.9
2016-May-22 03:08N 22°15' E 114°04'5 9.2
2016-May-22 02:33N 22°17' E 114°09'4 3.2
2016-May-22 01:15N 22°16' E 114°05'5 6.8
2016-May-22 00:33N 22°17' E 114°10'0 0.4
2016-May-21 23:33N 22°17' E 114°10'1 1.0
2016-May-21 22:34N 22°17' E 114°09'3 2.6
2016-May-21 21:34N 22°19' E 114°12'0 0.0
2016-May-21 20:33N 22°19' E 114°12'0 0.0
2016-May-21 19:34N 22°19' E 114°12'0 0.0
2016-May-21 18:34N 22°19' E 114°12'0 0.0
2016-May-21 17:34N 22°19' E 114°12'0 0.0
2016-May-21 16:34N 22°19' E 114°12'0 0.0
2016-May-21 15:33N 22°19' E 114°12'0 0.0
2016-May-21 14:33N 22°19' E 114°12'0 0.0
2016-May-21 13:34N 22°19' E 114°12'3 2.6
2016-May-21 12:34N 22°17' E 114°09'4 3.6
2016-May-21 11:18N 22°16' E 114°05'3 4.6
2016-May-21 10:33N 22°18' E 114°08'3 2.4
2016-May-21 09:25N 22°17' E 114°05'4 4.4
2016-May-21 08:29N 22°20' E 114°09'0 0.0
2016-May-21 07:26N 22°20' E 114°09'0 0.0
2016-May-21 06:24N 22°20' E 114°09'  
Track history (hours):
 
Tides and Currents Weather Stations Pressure Air Temp Water Temp Dewpoint Dewpoint Depression Visibility Wind Speed Wind Dir Waves Ship Positions

First Ferry Viii

Last reported at 2016-May-31 04:33 UTC. Time now 2016-May-31 05:59 UTC.
Position N 22°19' E 114°12'.

Length 36 m; draft 1.8 m.

Type: High speed craft. MMSI: 477995030.

Date/timePositionNaut miles runAvg speedWind from/ knotsBaromVisibWave heightAir tempDewpointWater temp
2016-May-31 04:33N 22°19' E 114°12'0 0.0
2016-May-31 03:33N 22°19' E 114°12'1 0.9
2016-May-31 02:33N 22°18' E 114°12'2 2.1
2016-May-31 01:34N 22°17' E 114°09'4 3.0
2016-May-31 00:17N 22°17' E 114°05'4 5.4
2016-May-30 23:33N 22°17' E 114°10'0 0.0
2016-May-30 16:33N 22°17' E 114°09'4 3.3
2016-May-30 15:17N 22°16' E 114°05'4 6.0
2016-May-30 14:34N 22°17' E 114°10'3 2.6
2016-May-30 13:15N 22°17' E 114°06'3 4.9
2016-May-30 12:33N 22°17' E 114°10'3 2.4
2016-May-30 11:13N 22°17' E 114°06'3 1.9
2016-May-30 09:33N 22°17' E 114°10'0 0.0
2016-May-30 07:33N 22°17' E 114°10'0 0.0
2016-May-30 05:33N 22°17' E 114°10'3 2.5
2016-May-30 04:33N 22°20' E 114°09'0 0.0
2016-May-30 03:32N 22°20' E 114°09'0 0.0
2016-May-30 02:33N 22°20' E 114°09'2 2.5
2016-May-30 01:33N 22°17' E 114°10'4 2.9
2016-May-30 00:16N 22°17' E 114°06'4 5.0
2016-May-29 23:34N 22°17' E 114°09'0 0.0
2016-May-29 16:33N 22°17' E 114°09'5 4.0
2016-May-29 15:19N 22°16' E 114°04'5 6.6
2016-May-29 14:34N 22°17' E 114°10'5 3.7
2016-May-29 13:18N 22°16' E 114°05'5 6.1
2016-May-29 12:34N 22°17' E 114°10'4 3.3
2016-May-29 11:17N 22°16' E 114°05'4 5.9
2016-May-29 10:33N 22°17' E 114°10'5 4.3
2016-May-29 09:20N 22°16' E 114°04'5 6.7
2016-May-29 08:33N 22°17' E 114°10'3 2.4
2016-May-29 07:13N 22°17' E 114°06'3 4.9
2016-May-29 06:33N 22°17' E 114°10'0 0.0
2016-May-29 04:34N 22°17' E 114°10'4 2.9
2016-May-29 03:14N 22°17' E 114°05'4 5.7
2016-May-29 02:33N 22°17' E 114°10'5 3.5
2016-May-29 01:17N 22°16' E 114°05'5 6.5
2016-May-29 00:34N 22°19' E 114°09'1 1.5
2016-May-28 23:34N 22°17' E 114°10'0 0.0
2016-May-28 16:33N 22°17' E 114°10'4 3.3
2016-May-28 15:18N 22°16' E 114°05'4 5.6
2016-May-28 14:33N 22°17' E 114°10'4 3.3
2016-May-28 13:16N 22°16' E 114°05'4 5.9
2016-May-28 12:33N 22°17' E 114°10'5 3.8
2016-May-28 11:19N 22°16' E 114°05'5 2.7
2016-May-28 09:33N 22°17' E 114°10'5 3.5
2016-May-28 08:03N 22°15' E 114°04'510.6
2016-May-28 07:33N 22°17' E 114°10'0 0.0
2016-May-28 05:33N 22°17' E 114°10'0 0.0
2016-May-28 03:33N 22°17' E 114°10'3 2.6
2016-May-28 02:33N 22°19' E 114°12'3 2.6
2016-May-28 01:34N 22°17' E 114°10'3 2.5
2016-May-28 00:15N 22°17' E 114°06'3 4.8
2016-May-27 23:34N 22°17' E 114°10'0 0.0
2016-May-27 16:33N 22°17' E 114°10'3 2.5
2016-May-27 15:14N 22°17' E 114°06'3 4.9
2016-May-27 14:33N 22°17' E 114°10'4 2.9
2016-May-27 13:16N 22°17' E 114°06'4 5.1
2016-May-27 12:33N 22°17' E 114°10'2 1.8
2016-May-27 11:12N 22°17' E 114°07'2 1.5
2016-May-27 09:33N 22°17' E 114°10'0 0.0
2016-May-27 07:33N 22°17' E 114°10'3 2.5
2016-May-27 06:33N 22°20' E 114°09'0 0.0
2016-May-27 05:33N 22°20' E 114°09'0 0.0
2016-May-27 04:32N 22°20' E 114°09'0 0.0
2016-May-27 03:33N 22°20' E 114°09'0 0.0
2016-May-27 02:33N 22°20' E 114°09'2 2.3
2016-May-27 01:34N 22°17' E 114°09'5 3.7
2016-May-27 00:17N 22°16' E 114°05'5 6.6
2016-May-26 23:34N 22°17' E 114°09'0 0.0
2016-May-26 16:33N 22°17' E 114°10'4 3.5
2016-May-26 15:17N 22°16' E 114°05'4 6.1
2016-May-26 14:33N 22°17' E 114°10'4 3.1
2016-May-26 13:16N 22°17' E 114°05'4 5.7
2016-May-26 12:33N 22°17' E 114°10'3 2.0
2016-May-26 11:12N 22°17' E 114°07'3 1.7
2016-May-26 09:33N 22°17' E 114°10'0 0.0
2016-May-26 07:33N 22°17' E 114°10'0 0.0
2016-May-26 05:33N 22°17' E 114°10'3 2.6
2016-May-26 04:33N 22°19' E 114°12'0 0.0
2016-May-26 03:33N 22°19' E 114°12'0 0.0
2016-May-26 02:33N 22°19' E 114°12'3 2.7
2016-May-26 01:34N 22°17' E 114°09'3 2.4
2016-May-26 00:13N 22°17' E 114°06'3 4.6
2016-May-25 23:34N 22°17' E 114°09'0 0.1
2016-May-25 16:33N 22°17' E 114°10'4 2.7
2016-May-25 15:15N 22°17' E 114°06'4 5.2
2016-May-25 14:33N 22°17' E 114°10'5 4.4
2016-May-25 13:22N 22°16' E 114°04'5 6.6
2016-May-25 12:33N 22°17' E 114°10'5 3.5
2016-May-25 11:16N 22°16' E 114°05'5 2.6
2016-May-25 09:33N 22°17' E 114°10'0 0.0
2016-May-25 07:33N 22°17' E 114°10'0 0.0
2016-May-25 05:33N 22°17' E 114°10'3 2.6
2016-May-25 04:33N 22°19' E 114°12'0 0.0
2016-May-25 03:33N 22°19' E 114°12'1 1.5
2016-May-25 02:33N 22°18' E 114°11'2 1.6
2016-May-25 01:34N 22°17' E 114°10'3 2.4
2016-May-25 00:13N 22°17' E 114°06'3 4.8
2016-May-24 23:34N 22°17' E 114°09'0 0.0
2016-May-24 16:34N 22°17' E 114°09'4 3.3
2016-May-24 15:17N 22°16' E 114°05'4 5.8
2016-May-24 14:33N 22°17' E 114°10'5 3.6
2016-May-24 13:18N 22°16' E 114°05'5 6.1
2016-May-24 12:33N 22°17' E 114°10'4 3.2
2016-May-24 11:15N 22°16' E 114°05'4 2.5
2016-May-24 09:33N 22°17' E 114°10'0 0.0
2016-May-24 07:33N 22°17' E 114°10'0 0.0
2016-May-24 05:33N 22°17' E 114°10'3 2.6
2016-May-24 04:33N 22°19' E 114°12'0 0.0
2016-May-24 03:33N 22°19' E 114°12'0 0.0
2016-May-24 02:33N 22°19' E 114°12'3 2.6
2016-May-24 01:33N 22°17' E 114°09'4 3.3
2016-May-24 00:17N 22°16' E 114°05'4 5.8
2016-May-23 23:33N 22°17' E 114°09'0 0.0
2016-May-23 16:34N 22°17' E 114°09'4 3.3
2016-May-23 15:17N 22°16' E 114°05'4 5.9
2016-May-23 14:33N 22°17' E 114°10'3 2.2
2016-May-23 13:13N 22°17' E 114°06'3 4.4
2016-May-23 12:33N 22°17' E 114°10'5 3.8
2016-May-23 11:19N 22°16' E 114°05'5 2.7
2016-May-23 09:33N 22°17' E 114°10'0 0.0
2016-May-23 07:33N 22°17' E 114°10'0 0.0
2016-May-23 05:34N 22°17' E 114°10'3 2.7
2016-May-23 04:33N 22°19' E 114°12'0 0.0
2016-May-23 03:33N 22°19' E 114°12'1 1.2
2016-May-23 02:34N 22°18' E 114°12'2 1.8
2016-May-23 01:33N 22°17' E 114°10'5 4.0
2016-May-23 00:19N 22°16' E 114°05'5 6.4
2016-May-22 23:33N 22°17' E 114°09'0 0.0
2016-May-22 16:33N 22°17' E 114°10'3 2.6
2016-May-22 15:14N 22°17' E 114°06'3 5.1
2016-May-22 14:34N 22°17' E 114°10'5 3.8
2016-May-22 13:18N 22°16' E 114°05'5 6.4
2016-May-22 12:33N 22°17' E 114°10'6 4.5
2016-May-22 11:20N 22°15' E 114°04'2 0.4
2016-May-22 07:08N 22°17' E 114°05'4 6.4
2016-May-22 06:34N 22°17' E 114°09'3 2.0
2016-May-22 05:06N 22°17' E 114°06'3 6.0
2016-May-22 04:33N 22°17' E 114°10'5 3.9
2016-May-22 03:08N 22°15' E 114°04'5 9.2
2016-May-22 02:33N 22°17' E 114°09'4 3.2
2016-May-22 01:15N 22°16' E 114°05'5 6.8
2016-May-22 00:33N 22°17' E 114°10'0 0.4
2016-May-21 23:33N 22°17' E 114°10'1 1.0
2016-May-21 22:34N 22°17' E 114°09'3 2.6
2016-May-21 21:34N 22°19' E 114°12'0 0.0
2016-May-21 20:33N 22°19' E 114°12'0 0.0
2016-May-21 19:34N 22°19' E 114°12'0 0.0
2016-May-21 18:34N 22°19' E 114°12'0 0.0
2016-May-21 17:34N 22°19' E 114°12'0 0.0
2016-May-21 16:34N 22°19' E 114°12'0 0.0
2016-May-21 15:33N 22°19' E 114°12'0 0.0
2016-May-21 14:33N 22°19' E 114°12'0 0.0
2016-May-21 13:34N 22°19' E 114°12'3 2.6
2016-May-21 12:34N 22°17' E 114°09'4 3.6
2016-May-21 11:18N 22°16' E 114°05'3 4.6
2016-May-21 10:33N 22°18' E 114°08'3 2.4
2016-May-21 09:25N 22°17' E 114°05'4 4.4
2016-May-21 08:29N 22°20' E 114°09'0 0.0
2016-May-21 07:26N 22°20' E 114°09'0 0.0
2016-May-21 06:24N 22°20' E 114°09'  

Dump ship's entire track history